createdAt,value
2023-05-01T04:02:14.773Z,99899.13
2023-05-01T04:06:19.560Z,99889.56
2023-05-01T04:10:23.011Z,99891.13
2023-05-01T04:14:34.472Z,99890.13
2023-05-01T04:18:38.624Z,99895.97
2023-05-01T04:22:41.170Z,99895.84
2023-05-01T04:26:43.799Z,99893.00
2023-05-01T04:30:47.045Z,99887.34
2023-05-01T04:34:50.874Z,99887.84
2023-05-01T04:38:53.778Z,99879.16
2023-05-01T04:42:56.742Z,99877.72
2023-05-01T04:46:59.389Z,99878.34
2023-05-01T04:51:04.008Z,99869.84
2023-05-01T04:55:10.486Z,99875.13
2023-05-01T04:59:20.587Z,99883.31
2023-05-01T05:03:23.362Z,99876.44
2023-05-01T05:07:27.370Z,99888.59
2023-05-01T05:11:58.670Z,99875.47
2023-05-01T05:16:01.454Z,99878.91
2023-05-01T05:20:04.452Z,99868.34
2023-05-01T05:24:08.533Z,99876.16
2023-05-01T05:28:11.136Z,99865.00
2023-05-01T05:32:14.285Z,99868.72
2023-05-01T05:36:17.218Z,99866.50
2023-05-01T05:40:21.537Z,99858.41
2023-05-01T05:44:31.628Z,99862.22
2023-05-01T05:48:34.256Z,99856.69
2023-05-01T05:52:36.966Z,99848.59
2023-05-01T05:56:42.631Z,99854.06
2023-05-01T06:00:46.343Z,99851.91
2023-05-01T06:04:48.992Z,99847.59
2023-05-01T06:08:54.211Z,99847.19
2023-05-01T06:13:10.660Z,99843.28
2023-05-01T06:17:18.064Z,99848.63
2023-05-01T06:21:20.718Z,99834.69
2023-05-01T06:25:24.077Z,99831.13
2023-05-01T06:29:28.039Z,99821.44
2023-05-01T06:33:31.053Z,99814.03
2023-05-01T06:37:50.485Z,99814.69
2023-05-01T06:41:53.055Z,99813.03
2023-05-01T06:46:07.201Z,99802.38
2023-05-01T06:50:11.280Z,99811.19
2023-05-01T06:54:13.851Z,99807.16
2023-05-01T06:58:23.960Z,99807.72
2023-05-01T07:02:28.242Z,99803.03
2023-05-01T07:06:31.087Z,99801.34
2023-05-01T07:10:33.733Z,99799.84
2023-05-01T07:14:36.379Z,99808.88
2023-05-01T07:18:40.222Z,99806.22
2023-05-01T07:22:42.727Z,99795.16
2023-05-01T07:26:45.262Z,99790.34
2023-05-01T07:30:47.809Z,99787.03
2023-05-01T07:34:51.686Z,99778.63
2023-05-01T07:38:54.628Z,99782.47
2023-05-01T07:42:57.132Z,99774.72
2023-05-01T07:47:04.109Z,99766.59
2023-05-01T07:51:08.011Z,99771.22
2023-05-01T07:55:11.127Z,99764.91
2023-05-01T07:59:14.997Z,99764.09
2023-05-01T08:03:18.544Z,99756.63
2023-05-01T08:07:22.624Z,99758.63
2023-05-01T08:11:26.465Z,99747.25
2023-05-01T08:15:29.055Z,99748.31
2023-05-01T08:19:31.746Z,99750.44
2023-05-01T08:23:35.796Z,99748.59
2023-05-01T08:27:38.479Z,99748.31
2023-05-01T08:31:43.187Z,99742.50
2023-05-01T08:35:45.824Z,99746.81
2023-05-01T08:39:49.785Z,99739.19
2023-05-01T08:43:52.457Z,99745.09
2023-05-01T08:47:56.017Z,99747.50
2023-05-01T08:52:02.276Z,99740.31
2023-05-01T08:56:07.621Z,99736.28
2023-05-01T09:00:15.814Z,99734.72
2023-05-01T09:04:18.639Z,99725.78
2023-05-01T09:08:21.325Z,99726.38
2023-05-01T09:12:26.889Z,99724.31
2023-05-01T09:16:30.460Z,99717.03
2023-05-01T09:20:33.561Z,99713.84
2023-05-01T09:24:36.144Z,99715.81
2023-05-01T09:28:44.533Z,99709.59
2023-05-01T09:32:47.072Z,99690.59
2023-05-01T09:36:49.659Z,99692.41
2023-05-01T09:40:54.110Z,99699.75
2023-05-01T09:44:58.143Z,99687.50
2023-05-01T09:49:03.296Z,99690.22
2023-05-01T09:53:06.606Z,99682.03
2023-05-01T09:57:10.060Z,99673.50
2023-05-01T10:01:14.061Z,99673.81
2023-05-01T10:05:16.986Z,99664.53
2023-05-01T10:09:29.155Z,99662.31
2023-05-01T10:13:31.986Z,99669.75
2023-05-01T10:17:37.258Z,99664.56
2023-05-01T10:21:40.001Z,99654.97
2023-05-01T10:25:43.492Z,99655.59
2023-05-01T10:29:48.998Z,99664.78
2023-05-01T10:33:53.070Z,99654.97
2023-05-01T10:38:01.036Z,99646.22
2023-05-01T10:42:05.363Z,99636.09
2023-05-01T10:46:34.816Z,99632.59
2023-05-01T10:51:11.839Z,99621.53
2023-05-01T10:55:33.443Z,99621.22
2023-05-01T11:00:09.403Z,99625.66
2023-05-01T11:04:48.218Z,99616.41
2023-05-01T11:08:52.365Z,99623.03
2023-05-01T11:12:55.218Z,99616.19
2023-05-01T11:16:57.770Z,99610.47
2023-05-01T11:21:02.127Z,99603.16
2023-05-01T11:25:20.512Z,99595.16
2023-05-01T11:29:23.942Z,99599.75
2023-05-01T11:33:27.440Z,99588.09
2023-05-01T11:37:43.095Z,99585.09
2023-05-01T11:41:47.565Z,99574.63
2023-05-01T11:45:54.348Z,99584.34
2023-05-01T11:49:57.055Z,99578.47
2023-05-01T11:54:00.601Z,99581.97
2023-05-01T11:58:04.963Z,99585.34
2023-05-01T12:02:19.624Z,99577.78
2023-05-01T12:06:22.255Z,99568.06
2023-05-01T12:10:25.813Z,99568.94
2023-05-01T12:14:30.578Z,99561.72
2023-05-01T12:18:33.491Z,99559.13
2023-05-01T12:22:36.145Z,99554.72
2023-05-01T12:26:38.941Z,99561.00
2023-05-01T12:30:43.839Z,99555.28
2023-05-01T12:34:46.821Z,99557.00
2023-05-01T12:38:56.654Z,99557.09
2023-05-01T12:42:59.362Z,99552.13
2023-05-01T12:47:04.527Z,99546.56
2023-05-01T12:51:07.699Z,99546.84
2023-05-01T12:55:12.530Z,99538.56
2023-05-01T12:59:25.391Z,99538.72
2023-05-01T13:03:30.959Z,99529.03
2023-05-01T13:07:33.828Z,99525.13
2023-05-01T13:11:36.313Z,99528.13
2023-05-01T13:15:38.960Z,99515.38
2023-05-01T13:19:42.912Z,99521.06
2023-05-01T13:23:53.878Z,99509.47
2023-05-01T13:27:56.541Z,99510.09
2023-05-01T13:31:59.692Z,99518.78
2023-05-01T13:36:11.232Z,99517.19
2023-05-01T13:40:21.403Z,99511.66
2023-05-01T13:44:24.268Z,99516.03
2023-05-01T13:48:26.812Z,99502.72
2023-05-01T13:52:31.389Z,99500.09
2023-05-01T13:56:35.437Z,99496.97
2023-05-01T14:00:39.511Z,99498.84
2023-05-01T14:04:42.083Z,99494.97
2023-05-01T14:08:47.837Z,99489.81
2023-05-01T14:12:50.880Z,99488.69
2023-05-01T14:16:54.121Z,99483.56
2023-05-01T14:20:56.725Z,99487.66
2023-05-01T14:25:00.749Z,99486.59
2023-05-01T14:29:03.665Z,99474.28
2023-05-01T14:33:08.286Z,99475.13
2023-05-01T14:37:10.979Z,99472.09
2023-05-01T14:41:15.467Z,99473.50
2023-05-01T14:45:18.045Z,99475.81
2023-05-01T14:49:21.852Z,99472.47
2023-05-01T14:53:24.384Z,99470.63
2023-05-01T14:57:29.204Z,99470.25
2023-05-01T15:01:32.332Z,99474.34
2023-05-01T15:05:34.900Z,99475.84
2023-05-01T15:09:37.560Z,99464.13
2023-05-01T15:13:42.524Z,99462.19
2023-05-01T15:17:45.178Z,99467.31
2023-05-01T15:21:47.709Z,99459.50
2023-05-01T15:25:50.686Z,99454.31
2023-05-01T15:29:54.976Z,99461.75
2023-05-01T15:33:58.034Z,99459.81
2023-05-01T15:38:00.574Z,99458.50
2023-05-01T15:42:03.771Z,99450.28
2023-05-01T15:46:07.860Z,99451.94
2023-05-01T15:50:11.738Z,99454.50
2023-05-01T15:54:14.286Z,99456.75
2023-05-01T15:58:17.068Z,99457.97
2023-05-01T16:02:21.512Z,99453.31
2023-05-01T16:06:24.332Z,99457.19
2023-05-01T16:10:27.919Z,99462.28
2023-05-01T16:14:31.021Z,99451.41
2023-05-01T16:18:35.181Z,99450.34
2023-05-01T16:22:39.299Z,99458.41
2023-05-01T16:26:41.968Z,99460.41
2023-05-01T16:30:45.686Z,99455.94
2023-05-01T16:34:49.871Z,99456.38
2023-05-01T16:38:53.652Z,99457.81
2023-05-01T16:43:00.671Z,99466.06
2023-05-01T16:47:05.041Z,99460.03
2023-05-01T16:51:10.279Z,99462.16
2023-05-01T16:55:13.059Z,99455.47
2023-05-01T16:59:15.697Z,99456.19
2023-05-01T17:03:18.591Z,99455.63
2023-05-01T17:07:23.487Z,99453.97
2023-05-01T17:11:26.118Z,99456.38
2023-05-01T17:15:28.731Z,99450.81
2023-05-01T17:19:31.720Z,99452.03
2023-05-01T17:23:35.706Z,99454.97
2023-05-01T17:27:38.612Z,99454.66
2023-05-01T17:31:41.125Z,99464.69
2023-05-01T17:35:43.729Z,99467.41
2023-05-01T17:39:47.608Z,99465.81
2023-05-01T17:43:50.120Z,99467.38
2023-05-01T17:47:53.663Z,99472.63
2023-05-01T17:51:56.660Z,99469.28
2023-05-01T17:56:00.462Z,99479.66
2023-05-01T18:00:03.437Z,99478.69
2023-05-01T18:04:14.995Z,99477.91
2023-05-01T18:08:17.610Z,99484.31
2023-05-01T18:12:21.453Z,99473.47
2023-05-01T18:16:24.763Z,99481.19
2023-05-01T18:20:27.650Z,99482.47
2023-05-01T18:24:30.165Z,99476.53
2023-05-01T18:28:34.572Z,99487.25
2023-05-01T18:32:47.443Z,99490.72
2023-05-01T18:36:54.506Z,99500.69
2023-05-01T18:40:57.102Z,99492.94
2023-05-01T18:45:00.936Z,99499.69
2023-05-01T18:49:03.487Z,99500.06
2023-05-01T18:53:06.011Z,99504.75
2023-05-01T18:57:08.532Z,99505.47
2023-05-01T19:01:12.459Z,99509.75
2023-05-01T19:05:15.047Z,99515.75
2023-05-01T19:09:17.579Z,99520.28
2023-05-01T19:13:20.102Z,99519.41
2023-05-01T19:17:23.991Z,99529.09
2023-05-01T19:21:26.581Z,99533.28
2023-05-01T19:25:29.406Z,99536.47
2023-05-01T19:29:32.799Z,99535.59
2023-05-01T19:33:36.548Z,99539.78
2023-05-01T19:37:39.716Z,99545.00
2023-05-01T19:41:42.278Z,99538.63
2023-05-01T19:45:44.995Z,99543.09
2023-05-01T19:49:48.881Z,99542.63
2023-05-01T19:53:51.397Z,99547.25
2023-05-01T19:57:53.897Z,99547.41
2023-05-01T20:06:01.048Z,99557.34
2023-05-01T20:10:03.714Z,99558.38
2023-05-01T20:14:06.261Z,99559.56
2023-05-01T20:18:09.206Z,99563.47
2023-05-01T20:22:13.154Z,99565.59
2023-05-01T20:26:17.497Z,99572.22
2023-05-01T20:30:20.111Z,99576.22
2023-05-01T20:34:23.829Z,99573.97
2023-05-01T20:38:28.318Z,99596.06
2023-05-01T20:42:30.858Z,99607.75
2023-05-01T20:46:33.607Z,99607.38
2023-05-01T20:50:36.360Z,99627.25
2023-05-01T20:54:40.275Z,99618.06
2023-05-01T20:58:42.848Z,99613.47
